Time;durP1;ratioP1;P1;durP2;ratioP2;P2;SDS_P1;SDS_P2;PMS_P1;PMS_P2;Temp;Humidity;BMP_temperature;BMP_pressure;BME280_temperature;BME280_humidity;BME280_pressure;Samples;Min_cycle;Max_cycle;Signal;HPM_P1;HPM_P2
2023/09/03 00:02:03;;;;;;;3.00;3.00;;;16.10;99.90;;;;;;4960411;28;20506;-67
2023/09/03 00:04:30;;;;;;;3.20;3.20;;;16.00;99.90;;;;;;4966172;28;20459;-67
2023/09/03 00:06:59;;;;;;;3.33;3.33;;;15.90;99.90;;;;;;4967998;28;20478;-67
2023/09/03 00:09:26;;;;;;;3.20;3.20;;;15.80;99.90;;;;;;4959355;28;20464;-68
2023/09/03 00:11:53;;;;;;;3.40;3.40;;;15.70;99.90;;;;;;4967182;28;20499;-67
2023/09/03 00:14:20;;;;;;;3.63;3.63;;;15.50;99.90;;;;;;4962717;28;20575;-67
2023/09/03 00:16:47;;;;;;;3.67;3.67;;;15.50;99.90;;;;;;4967269;28;20466;-67
2023/09/03 00:19:14;;;;;;;3.67;3.67;;;15.50;99.90;;;;;;4958388;28;20476;-67
2023/09/03 00:21:41;;;;;;;3.80;3.80;;;15.40;99.90;;;;;;4966676;28;20467;-66
2023/09/03 00:24:09;;;;;;;3.80;3.80;;;15.30;99.90;;;;;;4958170;28;20488;-66
2023/09/03 00:26:37;;;;;;;3.53;3.53;;;15.30;99.90;;;;;;4969754;28;20452;-68
2023/09/03 00:29:05;;;;;;;3.70;3.70;;;15.20;99.90;;;;;;4968057;28;20475;-67
2023/09/03 00:31:31;;;;;;;3.57;3.57;;;15.20;99.90;;;;;;4967641;28;20503;-67
2023/09/03 00:33:58;;;;;;;3.73;3.73;;;15.20;99.90;;;;;;4965092;28;20454;-68
2023/09/03 00:36:25;;;;;;;3.90;3.90;;;15.20;99.90;;;;;;4961796;28;21018;-67
2023/09/03 00:38:52;;;;;;;3.90;3.90;;;15.00;99.90;;;;;;4958732;28;20475;-67
2023/09/03 00:41:22;;;;;;;4.20;4.20;;;15.00;99.90;;;;;;4969748;28;20463;-68
2023/09/03 00:43:49;;;;;;;3.80;3.80;;;15.00;99.90;;;;;;4970501;28;20484;-68
2023/09/03 00:46:16;;;;;;;3.90;3.90;;;15.00;99.90;;;;;;4970201;28;20454;-68
2023/09/03 00:48:43;;;;;;;4.00;4.00;;;14.90;99.90;;;;;;4964260;28;20499;-67
2023/09/03 00:51:10;;;;;;;4.37;4.37;;;14.90;99.90;;;;;;4964014;28;20491;-66
2023/09/03 00:53:39;;;;;;;3.90;3.90;;;14.90;99.90;;;;;;4961692;28;20567;-66
2023/09/03 00:56:08;;;;;;;3.90;3.90;;;14.80;99.90;;;;;;4949214;28;20461;-67
2023/09/03 00:58:37;;;;;;;3.90;3.90;;;14.80;99.90;;;;;;4950610;29;20486;-67
2023/09/03 01:01:04;;;;;;;4.03;4.03;;;14.70;99.90;;;;;;4952062;28;20511;-66
2023/09/03 01:03:32;;;;;;;3.53;3.53;;;14.70;99.90;;;;;;4947557;29;20548;-68
2023/09/03 01:05:59;;;;;;;3.47;3.47;;;14.70;99.90;;;;;;4942652;29;20469;-67
2023/09/03 01:08:27;;;;;;;3.17;3.17;;;14.70;99.90;;;;;;4943001;29;20504;-67
2023/09/03 01:11:04;;;;;;;2.90;2.90;;;14.80;99.90;;;;;;4949998;29;20500;-67
2023/09/03 01:13:38;;;;;;;2.70;2.70;;;14.80;99.90;;;;;;4949005;29;20555;-67
2023/09/03 01:16:12;;;;;;;2.97;2.97;;;14.80;99.90;;;;;;4951742;28;20471;-67
2023/09/03 01:18:41;;;;;;;3.17;3.17;;;14.70;99.90;;;;;;4948685;28;20555;-66
2023/09/03 01:21:35;;;;;;;3.00;3.00;;;14.60;99.90;;;;;;4943569;28;20464;-67
2023/09/03 01:24:15;;;;;;;3.13;3.13;;;14.50;99.90;;;;;;4938356;28;20510;-67
2023/09/03 01:26:54;;;;;;;3.63;3.63;;;14.40;99.90;;;;;;4933218;29;20468;-67
2023/09/03 01:29:24;;;;;;;3.73;3.73;;;14.30;99.90;;;;;;4944660;29;20476;-66
2023/09/03 01:31:52;;;;;;;3.80;3.80;;;14.30;99.90;;;;;;4944936;28;20507;-67
2023/09/03 01:34:20;;;;;;;3.93;3.93;;;14.30;99.90;;;;;;4947225;29;20563;-67
2023/09/03 01:36:48;;;;;;;3.83;3.83;;;14.30;99.90;;;;;;4948405;29;20475;-67
2023/09/03 01:39:16;;;;;;;3.97;3.97;;;14.30;99.90;;;;;;4944207;28;20552;-67
2023/09/03 01:41:43;;;;;;;3.60;3.60;;;14.30;99.90;;;;;;4950155;29;20462;-67
2023/09/03 01:44:10;;;;;;;3.70;3.70;;;14.30;99.90;;;;;;4943206;29;20983;-67
2023/09/03 01:46:46;;;;;;;4.10;4.10;;;14.30;99.90;;;;;;4951275;28;20754;-67
2023/09/03 01:49:31;;;;;;;3.90;3.90;;;14.30;99.90;;;;;;4948853;28;20455;-67
2023/09/03 01:52:07;;;;;;;4.00;4.00;;;14.20;99.90;;;;;;4949076;29;20491;-66
2023/09/03 01:54:40;;;;;;;4.00;4.00;;;14.30;99.90;;;;;;4941282;28;20504;-67
2023/09/03 01:57:11;;;;;;;4.20;4.20;;;14.30;99.90;;;;;;4941443;28;20500;-67
2023/09/03 01:59:43;;;;;;;4.03;4.03;;;14.30;99.90;;;;;;4942020;28;20477;-68
2023/09/03 02:02:13;;;;;;;4.00;4.00;;;14.30;99.90;;;;;;4950110;28;20460;-66
2023/09/03 02:04:41;;;;;;;3.83;3.83;;;14.30;99.90;;;;;;4948631;28;20520;-67
2023/09/03 02:07:08;;;;;;;4.00;4.00;;;14.30;99.90;;;;;;4948996;28;20470;-67
2023/09/03 02:09:35;;;;;;;4.10;4.10;;;14.30;99.90;;;;;;4942147;28;20828;-67
2023/09/03 02:12:03;;;;;;;4.00;4.00;;;14.30;99.90;;;;;;4949616;28;20611;-67
2023/09/03 02:14:29;;;;;;;3.90;3.90;;;14.20;99.90;;;;;;4950006;28;20543;-68
2023/09/03 02:16:57;;;;;;;4.00;4.00;;;14.10;99.90;;;;;;4944886;28;20538;-67
2023/09/03 02:19:25;;;;;;;4.10;4.10;;;14.10;99.90;;;;;;4953436;28;20476;-67
2023/09/03 02:21:52;;;;;;;4.50;4.50;;;14.10;99.90;;;;;;4945231;28;20476;-67
2023/09/03 02:24:18;;;;;;;4.83;4.83;;;14.20;99.90;;;;;;4949568;28;20494;-67
2023/09/03 02:26:47;;;;;;;4.10;4.10;;;14.30;99.90;;;;;;4946222;28;20476;-67
2023/09/03 02:29:14;;;;;;;3.90;3.90;;;14.30;99.90;;;;;;4942285;28;20977;-67
2023/09/03 02:31:41;;;;;;;3.83;3.83;;;14.30;99.90;;;;;;4943898;28;20623;-67
2023/09/03 02:34:08;;;;;;;4.00;4.00;;;14.30;99.90;;;;;;4946427;28;20874;-67
2023/09/03 02:36:36;;;;;;;4.17;4.17;;;14.20;99.90;;;;;;4952952;28;20457;-67
2023/09/03 02:39:05;;;;;;;4.03;4.03;;;14.10;99.90;;;;;;4948143;28;20463;-67
2023/09/03 02:41:32;;;;;;;4.23;4.23;;;14.00;99.90;;;;;;4939521;28;20472;-66
2023/09/03 02:44:00;;;;;;;4.10;4.10;;;14.00;99.90;;;;;;4957120;28;20490;-67
2023/09/03 02:46:28;;;;;;;4.10;4.10;;;13.90;99.90;;;;;;4951305;28;21415;-67
2023/09/03 02:48:56;;;;;;;4.63;4.63;;;13.90;99.90;;;;;;4946884;28;20956;-67
2023/09/03 02:51:23;;;;;;;4.20;4.20;;;13.90;99.90;;;;;;4935170;28;20501;-68
2023/09/03 02:53:53;;;;;;;4.57;4.57;;;13.90;99.90;;;;;;4959635;28;20486;-67
2023/09/03 02:56:20;;;;;;;4.17;4.17;;;13.90;99.90;;;;;;4966365;28;20806;-67
2023/09/03 02:58:48;;;;;;;4.53;4.53;;;13.80;99.90;;;;;;4966499;28;20455;-68
2023/09/03 03:01:17;;;;;;;4.80;4.80;;;13.90;99.90;;;;;;4966418;28;20463;-66
2023/09/03 03:03:44;;;;;;;4.10;4.10;;;14.00;99.90;;;;;;4968721;28;20515;-67
2023/09/03 03:06:12;;;;;;;4.00;4.00;;;14.10;99.90;;;;;;4959885;28;20539;-66
2023/09/03 03:08:39;;;;;;;3.57;3.57;;;14.00;99.90;;;;;;4968093;28;20456;-67
2023/09/03 03:11:08;;;;;;;4.00;4.00;;;14.00;99.90;;;;;;4971527;28;20480;-67
2023/09/03 03:13:36;;;;;;;4.03;4.03;;;14.00;99.90;;;;;;4967593;28;20466;-66
2023/09/03 03:16:06;;;;;;;3.80;3.80;;;14.00;99.90;;;;;;4962764;28;20484;-66
2023/09/03 03:18:36;;;;;;;3.70;3.70;;;14.00;99.90;;;;;;4967575;28;20451;-66
2023/09/03 03:21:08;;;;;;;3.80;3.80;;;13.90;99.90;;;;;;4964642;28;20497;-67
2023/09/03 03:23:36;;;;;;;3.47;3.47;;;14.00;99.90;;;;;;4966823;28;20998;-67
2023/09/03 03:26:03;;;;;;;3.60;3.60;;;14.00;99.90;;;;;;4959462;28;20482;-67
2023/09/03 03:28:33;;;;;;;4.20;4.20;;;13.90;99.90;;;;;;4967201;28;20470;-66
2023/09/03 03:31:09;;;;;;;4.10;4.10;;;13.90;99.90;;;;;;4960523;28;20482;-66
2023/09/03 03:33:37;;;;;;;4.10;4.10;;;13.90;99.90;;;;;;4963122;28;20459;-66
2023/09/03 03:36:04;;;;;;;4.70;4.70;;;13.90;99.90;;;;;;4961242;28;20464;-67
2023/09/03 03:38:31;;;;;;;4.10;4.10;;;14.00;99.90;;;;;;4959038;28;20468;-67
2023/09/03 03:41:09;;;;;;;3.37;3.37;;;14.10;99.90;;;;;;4968301;28;20464;-67
2023/09/03 03:43:39;;;;;;;2.87;2.87;;;14.20;99.90;;;;;;4963811;28;20474;-66
2023/09/03 03:46:06;;;;;;;3.23;3.23;;;14.10;99.90;;;;;;4974391;28;20459;-66
2023/09/03 03:48:33;;;;;;;3.23;3.23;;;14.00;99.90;;;;;;4972088;28;20474;-66
2023/09/03 03:51:00;;;;;;;3.33;3.33;;;13.90;99.90;;;;;;4967603;28;20546;-67
2023/09/03 03:53:26;;;;;;;3.90;3.90;;;13.90;99.90;;;;;;4952363;28;20483;-67
2023/09/03 03:56:01;;;;;;;3.40;3.40;;;14.00;99.90;;;;;;4957814;28;20471;-66
2023/09/03 03:58:29;;;;;;;2.80;2.80;;;14.10;99.90;;;;;;4960298;28;20567;-66
2023/09/03 04:00:57;;;;;;;2.57;2.57;;;14.30;99.90;;;;;;4971830;28;20467;-66
2023/09/03 04:03:27;;;;;;;2.57;2.57;;;14.20;99.90;;;;;;4964757;28;20460;-67
2023/09/03 04:06:00;;;;;;;3.00;3.00;;;14.10;99.90;;;;;;4955012;28;20539;-66
2023/09/03 04:08:28;;;;;;;3.10;3.10;;;14.10;99.90;;;;;;4954861;28;20482;-67
2023/09/03 04:10:58;;;;;;;2.80;2.80;;;14.10;99.90;;;;;;4961548;28;20451;-66
2023/09/03 04:13:26;;;;;;;2.90;2.90;;;14.20;99.90;;;;;;4969517;28;20589;-68
2023/09/03 04:15:54;;;;;;;2.70;2.70;;;14.10;99.90;;;;;;4970383;28;20455;-67
2023/09/03 04:18:23;;;;;;;2.80;2.80;;;14.00;99.90;;;;;;4970855;28;20821;-67
2023/09/03 04:20:51;;;;;;;2.70;2.70;;;14.00;99.90;;;;;;4963212;28;20457;-66
2023/09/03 04:23:18;;;;;;;2.97;2.97;;;14.00;99.90;;;;;;4973872;28;20838;-67
2023/09/03 04:25:45;;;;;;;2.50;2.50;;;14.00;99.90;;;;;;4973691;28;20466;-68
2023/09/03 04:28:12;;;;;;;2.90;2.90;;;14.00;99.90;;;;;;4965332;28;20542;-67
2023/09/03 04:30:39;;;;;;;2.60;2.60;;;14.00;99.90;;;;;;4972517;28;20458;-67
2023/09/03 04:33:07;;;;;;;2.60;2.60;;;14.00;99.90;;;;;;4970058;28;20526;-67
2023/09/03 04:35:37;;;;;;;2.60;2.60;;;13.90;99.90;;;;;;4963970;28;21140;-67
2023/09/03 04:38:05;;;;;;;2.90;2.90;;;13.80;99.90;;;;;;4970152;28;20504;-68
2023/09/03 04:40:34;;;;;;;2.83;2.83;;;13.70;99.90;;;;;;4960952;28;20994;-67
2023/09/03 04:43:01;;;;;;;2.97;2.97;;;13.70;99.90;;;;;;4964261;28;20492;-67
2023/09/03 04:45:28;;;;;;;3.43;3.43;;;13.70;99.90;;;;;;4955625;28;20494;-67
2023/09/03 04:47:56;;;;;;;3.47;3.47;;;13.60;99.90;;;;;;4966811;28;20471;-66
2023/09/03 04:50:23;;;;;;;3.70;3.70;;;13.60;99.90;;;;;;4965450;28;20553;-67
2023/09/03 04:52:51;;;;;;;3.20;3.20;;;13.60;99.90;;;;;;4970435;28;20562;-66
2023/09/03 04:55:18;;;;;;;3.97;3.97;;;13.50;99.90;;;;;;4969995;28;20460;-68
2023/09/03 04:57:45;;;;;;;3.50;3.50;;;13.50;99.90;;;;;;4969266;28;20460;-66
2023/09/03 05:00:14;;;;;;;4.03;4.03;;;13.50;99.90;;;;;;4968847;28;20486;-68
2023/09/03 05:02:40;;;;;;;4.23;4.23;;;13.50;99.90;;;;;;4958488;28;21111;-67
2023/09/03 05:05:08;;;;;;;4.43;4.43;;;13.60;99.90;;;;;;4965292;28;20463;-66
2023/09/03 05:07:35;;;;;;;3.80;3.80;;;13.60;99.90;;;;;;4965902;28;20442;-67
2023/09/03 05:10:05;;;;;;;3.57;3.57;;;13.60;99.90;;;;;;4966126;28;20467;-67
2023/09/03 05:12:34;;;;;;;3.30;3.30;;;13.60;99.90;;;;;;4963780;28;20515;-68
2023/09/03 05:15:02;;;;;;;3.30;3.30;;;13.50;99.90;;;;;;4967335;28;20462;-67
2023/09/03 05:17:29;;;;;;;3.50;3.50;;;13.60;99.90;;;;;;4965685;28;20456;-67
2023/09/03 05:19:57;;;;;;;3.47;3.47;;;13.60;99.90;;;;;;4959824;28;20468;-67
2023/09/03 05:22:24;;;;;;;3.30;3.30;;;13.60;99.90;;;;;;4968149;28;20476;-66
2023/09/03 05:24:52;;;;;;;3.30;3.30;;;13.60;99.90;;;;;;4967253;28;20931;-66
2023/09/03 05:27:20;;;;;;;3.53;3.53;;;13.60;99.90;;;;;;4974199;28;20455;-66
2023/09/03 05:29:47;;;;;;;3.63;3.63;;;13.70;99.90;;;;;;4960855;28;20507;-66
2023/09/03 05:32:15;;;;;;;3.60;3.60;;;13.70;99.90;;;;;;4969620;28;20506;-66
2023/09/03 05:34:42;;;;;;;3.57;3.57;;;13.80;99.90;;;;;;4967057;28;20499;-67
2023/09/03 05:37:09;;;;;;;3.50;3.50;;;13.90;99.90;;;;;;4968477;28;20470;-67
2023/09/03 05:39:36;;;;;;;3.47;3.47;;;14.10;99.90;;;;;;4967129;28;20466;-67
2023/09/03 05:42:07;;;;;;;3.40;3.40;;;14.20;99.90;;;;;;4967736;28;20455;-67
2023/09/03 05:44:36;;;;;;;3.27;3.27;;;14.40;99.90;;;;;;4968325;28;20471;-67
2023/09/03 05:47:03;;;;;;;3.10;3.10;;;14.50;99.90;;;;;;4954571;28;20909;-67
2023/09/03 05:49:29;;;;;;;2.57;2.57;;;14.70;99.90;;;;;;4962071;28;20463;-67
2023/09/03 05:51:57;;;;;;;3.37;3.37;;;14.90;99.90;;;;;;4969017;28;20463;-67
2023/09/03 05:54:24;;;;;;;2.50;2.50;;;15.10;99.90;;;;;;4965633;28;20779;-66
2023/09/03 05:56:51;;;;;;;2.60;2.60;;;15.30;99.90;;;;;;4965800;28;20464;-66
2023/09/03 05:59:17;;;;;;;2.40;2.40;;;15.50;99.90;;;;;;4959892;28;20700;-67
2023/09/03 06:01:46;;;;;;;2.50;2.50;;;15.70;99.90;;;;;;4967917;28;20467;-67
2023/09/03 06:04:15;;;;;;;2.90;2.90;;;15.90;99.90;;;;;;4959045;28;20471;-67
2023/09/03 06:06:41;;;;;;;2.60;2.60;;;16.00;99.90;;;;;;4956852;28;20455;-67
2023/09/03 06:09:09;;;;;;;2.60;2.60;;;16.00;99.90;;;;;;4961570;28;20457;-67
2023/09/03 06:11:36;;;;;;;2.70;2.70;;;16.00;99.90;;;;;;4971686;28;20583;-67
2023/09/03 06:14:03;;;;;;;2.60;2.60;;;16.20;99.90;;;;;;4962053;28;20824;-67
2023/09/03 06:16:30;;;;;;;2.30;2.30;;;16.30;99.90;;;;;;4965652;28;20918;-68
2023/09/03 06:18:58;;;;;;;2.63;2.63;;;16.40;99.90;;;;;;4968064;28;20464;-67
2023/09/03 06:21:26;;;;;;;2.90;2.90;;;16.60;99.90;;;;;;4960646;28;20471;-67
2023/09/03 06:23:53;;;;;;;2.70;2.70;;;16.70;99.90;;;;;;4965252;28;20510;-68
2023/09/03 06:26:21;;;;;;;3.00;3.00;;;16.80;99.90;;;;;;4963665;28;20473;-66
2023/09/03 06:28:48;;;;;;;3.77;3.77;;;16.90;99.90;;;;;;4965558;28;20464;-67
2023/09/03 06:31:15;;;;;;;2.87;2.87;;;16.90;99.90;;;;;;4955257;28;20541;-67
2023/09/03 06:33:43;;;;;;;3.00;3.00;;;16.90;99.90;;;;;;4957611;28;20491;-66
2023/09/03 06:36:11;;;;;;;3.10;3.10;;;17.00;99.90;;;;;;4961190;28;20955;-67
2023/09/03 06:38:39;;;;;;;2.90;2.90;;;17.10;99.90;;;;;;4949468;28;20474;-65
2023/09/03 06:41:06;;;;;;;2.50;2.50;;;17.20;99.90;;;;;;4960716;28;20474;-68
2023/09/03 06:43:33;;;;;;;2.80;2.80;;;17.30;99.90;;;;;;4959782;28;20451;-66
2023/09/03 06:46:00;;;;;;;2.83;2.83;;;17.30;99.90;;;;;;4955036;28;20463;-67
2023/09/03 06:48:27;;;;;;;2.67;2.67;;;17.40;99.90;;;;;;4962094;28;20514;-65
2023/09/03 06:50:56;;;;;;;2.57;2.57;;;17.60;99.90;;;;;;4966735;28;20945;-67
2023/09/03 06:53:25;;;;;;;2.40;2.40;;;17.60;99.90;;;;;;4961912;28;20998;-67
2023/09/03 06:55:52;;;;;;;2.33;2.33;;;17.60;99.90;;;;;;4954058;28;20466;-66
2023/09/03 06:58:19;;;;;;;2.30;2.30;;;17.70;99.90;;;;;;4966049;28;20468;-67
2023/09/03 07:00:46;;;;;;;2.00;2.00;;;17.80;99.90;;;;;;4964786;28;20456;-66
2023/09/03 07:03:14;;;;;;;2.10;2.10;;;17.80;99.90;;;;;;4966232;28;20455;-66
2023/09/03 07:05:41;;;;;;;2.10;2.10;;;17.70;99.90;;;;;;4963653;28;21030;-67
2023/09/03 07:08:08;;;;;;;1.80;1.80;;;17.80;99.90;;;;;;4965064;28;20468;-66
2023/09/03 07:10:36;;;;;;;1.50;1.50;;;17.90;99.90;;;;;;4967610;28;20467;-67
2023/09/03 07:13:03;;;;;;;1.60;1.60;;;18.00;99.90;;;;;;4961390;28;20499;-66
2023/09/03 07:15:30;;;;;;;1.50;1.50;;;18.00;99.90;;;;;;4959018;28;21149;-67
2023/09/03 07:17:57;;;;;;;1.50;1.50;;;18.10;99.90;;;;;;4961296;28;20472;-67
2023/09/03 07:20:24;;;;;;;1.90;1.90;;;18.20;99.90;;;;;;4963980;28;20498;-66
2023/09/03 07:22:51;;;;;;;2.20;2.20;;;18.40;99.90;;;;;;4961192;28;21041;-66
2023/09/03 07:25:18;;;;;;;1.80;1.80;;;18.40;99.90;;;;;;4968914;28;20981;-67
2023/09/03 07:27:47;;;;;;;2.60;2.60;;;18.50;99.90;;;;;;4975847;28;20502;-66
2023/09/03 07:30:14;;;;;;;2.30;2.30;;;18.60;99.90;;;;;;4959918;28;20476;-67
2023/09/03 07:32:41;;;;;;;2.20;2.20;;;18.70;99.90;;;;;;4965926;28;20498;-67
2023/09/03 07:35:09;;;;;;;2.13;2.13;;;18.80;99.90;;;;;;4957929;28;20504;-66
2023/09/03 07:37:36;;;;;;;2.70;2.70;;;18.80;99.90;;;;;;4959732;28;20468;-67
2023/09/03 07:40:04;;;;;;;2.60;2.60;;;19.00;99.90;;;;;;4960998;28;20459;-66
2023/09/03 07:42:31;;;;;;;3.20;3.20;;;19.20;99.90;;;;;;4965880;28;20542;-67
2023/09/03 07:44:59;;;;;;;3.60;3.60;;;19.10;99.90;;;;;;4967040;28;20865;-67
2023/09/03 07:47:26;;;;;;;4.00;4.00;;;19.20;99.90;;;;;;4961549;28;20498;-67
2023/09/03 07:49:52;;;;;;;4.10;4.10;;;19.30;99.90;;;;;;4969268;28;20958;-67
2023/09/03 07:52:20;;;;;;;4.00;4.00;;;19.40;99.90;;;;;;4959667;28;20975;-67
2023/09/03 07:54:46;;;;;;;4.40;4.40;;;19.20;99.90;;;;;;4963824;28;20491;-67
2023/09/03 07:57:14;;;;;;;4.30;4.30;;;19.20;99.90;;;;;;4965078;28;20469;-66
2023/09/03 07:59:41;;;;;;;4.60;4.60;;;19.50;99.90;;;;;;4969379;28;20511;-67
2023/09/03 08:02:10;;;;;;;4.90;4.90;;;19.60;99.90;;;;;;4970337;28;20561;-67
2023/09/03 08:04:37;;;;;;;5.60;5.50;;;19.70;99.90;;;;;;4960089;28;20459;-66
2023/09/03 08:07:04;;;;;;;5.77;5.67;;;19.80;99.90;;;;;;4958270;28;20475;-67
2023/09/03 08:09:30;;;;;;;5.80;5.70;;;19.70;99.90;;;;;;4965429;28;20467;-66
2023/09/03 08:11:57;;;;;;;6.10;6.00;;;19.90;99.90;;;;;;4967925;28;20589;-67
2023/09/03 08:14:24;;;;;;;6.93;6.83;;;20.00;99.90;;;;;;4961479;28;20491;-67
2023/09/03 08:16:51;;;;;;;7.40;7.30;;;20.10;99.90;;;;;;4971533;28;20450;-67
2023/09/03 08:19:19;;;;;;;7.40;7.30;;;20.30;99.90;;;;;;4959328;28;20506;-68
2023/09/03 08:21:47;;;;;;;7.80;7.70;;;20.30;99.90;;;;;;4962816;28;20534;-67
2023/09/03 08:24:14;;;;;;;8.57;8.47;;;20.40;99.90;;;;;;4968710;28;20475;-67
2023/09/03 08:26:42;;;;;;;8.53;8.43;;;20.70;99.90;;;;;;4974428;28;20457;-68
2023/09/03 08:29:10;;;;;;;8.73;8.63;;;20.90;99.90;;;;;;4966103;28;20790;-67
2023/09/03 08:31:37;;;;;;;9.83;9.63;;;21.20;99.90;;;;;;4967879;28;21014;-67
2023/09/03 08:34:05;;;;;;;9.40;9.20;;;21.30;99.90;;;;;;4965822;28;20498;-67
2023/09/03 08:36:33;;;;;;;10.10;9.90;;;21.60;99.90;;;;;;4969181;28;20459;-68
2023/09/03 08:39:01;;;;;;;10.67;10.47;;;21.90;99.90;;;;;;4967152;28;20507;-68
2023/09/03 08:41:31;;;;;;;10.73;10.50;;;22.00;99.90;;;;;;4969146;28;20463;-67
2023/09/03 08:44:03;;;;;;;11.17;10.87;;;21.90;99.90;;;;;;4966951;28;20514;-68
2023/09/03 08:46:32;;;;;;;10.20;10.00;;;21.90;99.90;;;;;;4955658;28;21017;-68
2023/09/03 08:49:00;;;;;;;10.07;9.87;;;21.90;99.90;;;;;;4950556;28;20502;-68
2023/09/03 08:51:27;;;;;;;10.90;10.60;;;22.20;99.90;;;;;;4959823;28;20459;-67
2023/09/03 08:53:56;;;;;;;10.47;10.27;;;22.40;99.90;;;;;;4965113;28;20495;-68
2023/09/03 08:56:24;;;;;;;11.00;10.70;;;22.40;99.90;;;;;;4967761;28;20481;-67
2023/09/03 08:58:51;;;;;;;10.80;10.57;;;22.40;99.90;;;;;;4959801;28;20467;-68
2023/09/03 09:01:18;;;;;;;10.47;10.27;;;22.50;99.90;;;;;;4969556;28;20985;-68
2023/09/03 09:03:46;;;;;;;10.30;10.10;;;22.40;99.90;;;;;;4968969;28;20775;-67
2023/09/03 09:06:16;;;;;;;11.30;11.00;;;22.40;99.90;;;;;;4959159;28;20466;-68
2023/09/03 09:08:43;;;;;;;11.07;10.77;;;22.60;99.90;;;;;;4968403;28;20949;-67
2023/09/03 09:11:18;;;;;;;10.73;10.53;;;22.90;99.90;;;;;;4958503;28;20461;-68
2023/09/03 09:13:56;;;;;;;11.03;10.73;;;23.40;99.90;;;;;;4964041;28;20589;-69
2023/09/03 09:16:24;;;;;;;10.40;10.20;;;23.50;99.90;;;;;;4959612;28;20558;-68
2023/09/03 09:18:50;;;;;;;10.60;10.40;;;24.30;99.90;;;;;;4956259;28;20459;-67
2023/09/03 09:21:19;;;;;;;10.50;10.30;;;24.40;99.90;;;;;;4957068;28;20476;-68
2023/09/03 09:23:47;;;;;;;11.23;10.97;;;24.70;99.90;;;;;;4963947;28;20492;-68
2023/09/03 09:26:21;;;;;;;10.60;10.40;;;25.00;99.90;;;;;;4962567;28;20462;-68
2023/09/03 09:28:58;;;;;;;10.23;10.03;;;24.70;99.90;;;;;;4954582;28;20470;-69
2023/09/03 09:31:30;;;;;;;10.50;10.30;;;24.00;99.90;;;;;;4955421;28;21074;-68
2023/09/03 09:33:59;;;;;;;11.30;11.00;;;24.30;99.90;;;;;;4966922;28;20852;-68
2023/09/03 09:36:25;;;;;;;10.77;10.57;;;24.80;99.90;;;;;;4966947;28;20547;-68
2023/09/03 09:38:52;;;;;;;10.60;10.40;;;24.80;99.90;;;;;;4960561;28;20781;-67
2023/09/03 09:41:26;;;;;;;11.33;11.03;;;25.50;99.90;;;;;;4959526;28;20892;-68
2023/09/03 09:43:53;;;;;;;10.90;10.70;;;26.10;99.90;;;;;;4963439;28;20463;-68
2023/09/03 09:46:26;;;;;;;10.90;10.70;;;26.70;99.90;;;;;;4960755;28;20477;-68
2023/09/03 09:48:57;;;;;;;11.57;11.27;;;26.40;99.90;;;;;;4956395;28;20470;-68
2023/09/03 09:51:25;;;;;;;11.57;11.27;;;26.40;99.90;;;;;;4959810;28;20464;-68
2023/09/03 09:53:56;;;;;;;11.80;11.50;;;26.40;99.90;;;;;;4963945;28;20499;-68
2023/09/03 09:56:28;;;;;;;11.43;11.13;;;26.60;99.90;;;;;;4957806;28;20464;-67
2023/09/03 09:58:57;;;;;;;11.30;11.00;;;26.50;99.90;;;;;;4958917;28;20876;-67
2023/09/03 10:01:25;;;;;;;11.20;10.90;;;26.70;99.90;;;;;;4965132;28;20511;-68
2023/09/03 10:03:54;;;;;;;11.77;11.47;;;27.00;99.90;;;;;;4965953;28;20451;-67
2023/09/03 10:06:22;;;;;;;12.00;11.70;;;27.00;99.90;;;;;;4959542;28;20776;-68
2023/09/03 10:08:51;;;;;;;11.90;11.60;;;27.60;99.90;;;;;;4964456;28;20460;-69
2023/09/03 10:11:18;;;;;;;12.20;11.90;;;27.60;99.90;;;;;;4965473;28;20819;-67
2023/09/03 10:13:48;;;;;;;12.13;11.83;;;27.20;99.90;;;;;;4967363;28;21474;-67
2023/09/03 10:16:18;;;;;;;13.20;12.80;;;27.20;99.90;;;;;;4962817;28;20463;-68
2023/09/03 10:18:46;;;;;;;12.50;12.20;;;27.80;99.90;;;;;;4964086;28;20567;-68
2023/09/03 10:21:17;;;;;;;12.10;11.80;;;28.20;99.90;;;;;;4963733;28;20460;-67
2023/09/03 10:23:48;;;;;;;13.30;12.90;;;28.20;99.90;;;;;;4956973;28;20491;-69
2023/09/03 10:26:19;;;;;;;13.07;12.67;;;28.50;99.90;;;;;;4963679;28;20832;-68
2023/09/03 10:28:51;;;;;;;13.87;13.47;;;28.00;99.90;;;;;;4959909;28;20491;-68
2023/09/03 10:31:19;;;;;;;13.40;13.00;;;28.30;99.90;;;;;;4955845;28;21006;-70
2023/09/03 10:33:47;;;;;;;12.20;11.90;;;28.30;99.90;;;;;;4955191;28;20498;-69
2023/09/03 10:36:15;;;;;;;12.53;12.23;;;28.60;99.90;;;;;;4962255;28;20474;-68
2023/09/03 10:38:42;;;;;;;12.40;12.10;;;28.10;99.90;;;;;;4951218;28;20840;-68
2023/09/03 10:41:19;;;;;;;12.97;12.67;;;28.20;99.90;;;;;;4960216;28;20475;-68
2023/09/03 10:43:52;;;;;;;13.13;12.73;;;27.80;99.90;;;;;;4963520;28;20835;-68
2023/09/03 10:46:21;;;;;;;12.97;12.63;;;28.20;99.90;;;;;;4966522;28;20885;-68
2023/09/03 10:48:52;;;;;;;13.13;12.73;;;28.40;99.90;;;;;;4964810;28;20856;-68
2023/09/03 10:51:34;;;;;;;12.77;12.47;;;28.30;99.90;;;;;;4960171;28;20527;-69
2023/09/03 10:54:18;;;;;;;13.20;12.80;;;28.40;99.90;;;;;;4955949;28;20560;-68
2023/09/03 10:57:18;;;;;;;13.57;13.17;;;29.10;99.90;;;;;;4943109;28;20874;-69
2023/09/03 11:00:09;;;;;;;14.20;13.80;;;29.70;99.90;;;;;;4936912;29;20457;-68
2023/09/03 11:02:39;;;;;;;13.60;13.20;;;29.90;99.90;;;;;;4940431;29;20465;-68
2023/09/03 11:05:14;;;;;;;12.87;12.47;;;30.70;99.90;;;;;;4944353;29;20545;-67
2023/09/03 11:07:42;;;;;;;13.50;13.10;;;29.90;99.90;;;;;;4945593;29;20995;-67
2023/09/03 11:10:39;;;;;;;13.40;13.00;;;29.90;99.90;;;;;;4945797;29;21027;-68
2023/09/03 11:13:13;;;;;;;12.50;12.20;;;30.00;99.90;;;;;;4893691;29;20988;-67
2023/09/03 11:15:56;;;;;;;12.47;12.17;;;30.10;99.90;;;;;;4936173;28;20527;-69
2023/09/03 11:18:25;;;;;;;13.27;12.87;;;30.40;99.90;;;;;;4933268;29;20473;-68
2023/09/03 11:20:52;;;;;;;13.50;13.10;;;30.90;99.90;;;;;;4937059;28;20469;-67
2023/09/03 11:23:20;;;;;;;12.87;12.57;;;30.70;99.90;;;;;;4942411;29;20477;-67
2023/09/03 11:25:47;;;;;;;12.87;12.57;;;30.80;99.90;;;;;;4942090;29;20476;-66
2023/09/03 11:28:15;;;;;;;12.70;12.40;;;29.90;99.90;;;;;;4943596;29;21042;-66
2023/09/03 11:30:43;;;;;;;12.27;11.97;;;30.00;99.90;;;;;;4936890;29;20507;-66
2023/09/03 11:33:22;;;;;;;12.90;12.60;;;29.80;99.90;;;;;;4941931;29;20479;-68
2023/09/03 11:35:49;;;;;;;12.70;12.40;;;30.60;99.70;;;;;;4943364;29;20868;-67
2023/09/03 11:38:17;;;;;;;12.80;12.50;;;30.80;98.00;;;;;;4941390;29;20476;-68
2023/09/03 11:40:43;;;;;;;12.90;12.60;;;30.40;98.40;;;;;;4943833;29;20535;-68
2023/09/03 11:43:11;;;;;;;12.70;12.40;;;30.30;98.90;;;;;;4944584;29;20463;-68
2023/09/03 11:45:38;;;;;;;12.33;12.03;;;30.30;98.80;;;;;;4938761;28;20475;-68
2023/09/03 11:48:07;;;;;;;12.17;11.87;;;30.70;99.10;;;;;;4939491;28;20882;-67
2023/09/03 11:50:36;;;;;;;12.73;12.43;;;30.90;99.30;;;;;;4941576;29;20457;-68
2023/09/03 11:53:06;;;;;;;12.67;12.37;;;31.10;99.30;;;;;;4940319;28;20975;-67
2023/09/03 11:55:36;;;;;;;13.23;12.90;;;31.30;98.30;;;;;;4947308;29;20496;-69
2023/09/03 11:58:05;;;;;;;13.03;12.73;;;31.50;99.80;;;;;;4940776;29;20552;-69
2023/09/03 12:00:33;;;;;;;13.20;12.83;;;32.10;98.50;;;;;;4939617;29;20530;-69
2023/09/03 12:03:02;;;;;;;12.50;12.20;;;31.40;98.40;;;;;;4932272;29;20472;-68
2023/09/03 12:05:29;;;;;;;12.10;11.80;;;31.50;97.90;;;;;;4944518;29;20463;-68
2023/09/03 12:08:02;;;;;;;12.73;12.43;;;31.90;97.90;;;;;;4936011;29;20476;-69
2023/09/03 12:10:30;;;;;;;13.10;12.80;;;32.30;98.60;;;;;;4939681;29;20466;-68
2023/09/03 12:12:57;;;;;;;12.93;12.63;;;32.00;96.60;;;;;;4935713;29;20502;-68
2023/09/03 12:15:25;;;;;;;12.63;12.33;;;31.30;98.20;;;;;;4930913;28;20532;-68
2023/09/03 12:17:52;;;;;;;13.10;12.80;;;31.40;97.60;;;;;;4934758;29;20514;-68
2023/09/03 12:20:32;;;;;;;12.80;12.50;;;31.70;98.00;;;;;;4932371;29;20858;-68
2023/09/03 12:23:09;;;;;;;14.77;14.37;;;31.80;97.00;;;;;;4939689;29;21043;-68
2023/09/03 12:25:36;;;;;;;14.80;14.40;;;31.50;97.40;;;;;;4942388;29;20581;-68
2023/09/03 12:28:04;;;;;;;13.70;13.30;;;31.90;97.00;;;;;;4937984;29;20503;-68
2023/09/03 12:30:56;;;;;;;14.40;14.00;;;32.00;97.00;;;;;;4946950;29;20448;-69
2023/09/03 12:33:23;;;;;;;13.70;13.30;;;31.90;95.70;;;;;;4942727;29;20456;-68
2023/09/03 12:36:07;;;;;;;14.20;13.80;;;32.00;95.30;;;;;;4940613;29;21116;-69
2023/09/03 12:38:56;;;;;;;14.00;13.60;;;31.90;93.80;;;;;;4936839;29;20825;-68
2023/09/03 12:41:27;;;;;;;14.07;13.67;;;31.60;95.00;;;;;;4940002;29;20468;-69
2023/09/03 12:43:55;;;;;;;13.90;13.50;;;31.70;95.30;;;;;;4950302;29;20838;-68
2023/09/03 12:46:22;;;;;;;14.20;13.80;;;31.80;96.00;;;;;;4952172;28;20460;-68
2023/09/03 12:48:48;;;;;;;14.00;13.60;;;31.40;95.10;;;;;;4946383;29;20476;-69
2023/09/03 12:51:18;;;;;;;14.17;13.77;;;31.00;94.20;;;;;;4944912;29;20469;-68